Time;durP1;ratioP1;P1;durP2;ratioP2;P2;SDS_P1;SDS_P2;PMS_P1;PMS_P2;Temp;Humidity;BMP_temperature;BMP_pressure;BME280_temperature;BME280_humidity;BME280_pressure;Samples;Min_cycle;Max_cycle;Signal;HPM_P1;HPM_P2
2023/03/07 00:00:30;;;;;;;9.87;4.87;;;-0.10;99.90;;;;;;5036990;28;20555;-63
2023/03/07 00:02:55;;;;;;;7.13;4.97;;;-0.10;99.90;;;;;;5042143;28;20179;-64
2023/03/07 00:05:21;;;;;;;8.40;6.70;;;0.00;99.90;;;;;;5042130;28;20251;-63
2023/03/07 00:07:46;;;;;;;6.70;5.40;;;0.00;99.90;;;;;;5045290;28;20257;-64
2023/03/07 00:10:12;;;;;;;10.47;7.50;;;-0.10;99.90;;;;;;5043495;28;20171;-65
2023/03/07 00:12:38;;;;;;;7.23;4.60;;;-0.10;99.90;;;;;;5040316;28;20332;-64
2023/03/07 00:15:04;;;;;;;8.20;5.07;;;-0.10;99.90;;;;;;5045987;28;20209;-65
2023/03/07 00:17:29;;;;;;;6.57;5.30;;;-0.10;99.90;;;;;;5043957;28;20264;-65
2023/03/07 00:19:55;;;;;;;6.63;4.87;;;-0.10;99.90;;;;;;5044782;28;20421;-62
2023/03/07 00:22:20;;;;;;;7.93;4.83;;;0.00;99.90;;;;;;5039817;28;20232;-63
2023/03/07 00:24:47;;;;;;;9.47;6.00;;;0.00;99.90;;;;;;5039402;28;20489;-62
2023/03/07 00:27:13;;;;;;;11.47;6.73;;;-0.10;99.90;;;;;;5042884;28;20199;-64
2023/03/07 00:29:39;;;;;;;5.17;4.67;;;0.00;99.90;;;;;;5044830;28;20452;-65
2023/03/07 00:32:04;;;;;;;10.97;6.40;;;-0.10;99.90;;;;;;5036171;28;20230;-61
2023/03/07 00:34:30;;;;;;;12.53;7.30;;;-0.10;99.90;;;;;;5046265;28;20210;-63
2023/03/07 00:36:56;;;;;;;10.50;6.70;;;-0.10;99.90;;;;;;5043983;28;20286;-64
2023/03/07 00:39:21;;;;;;;11.23;6.53;;;-0.10;99.90;;;;;;5034342;28;20205;-63
2023/03/07 00:41:47;;;;;;;14.33;8.20;;;-0.10;99.90;;;;;;5039434;28;20664;-63
2023/03/07 00:44:12;;;;;;;9.93;6.10;;;-0.10;99.90;;;;;;5042467;28;20190;-61
2023/03/07 00:46:38;;;;;;;9.33;5.47;;;-0.10;99.90;;;;;;5037279;28;20583;-63
2023/03/07 00:49:03;;;;;;;9.30;7.27;;;-0.10;99.90;;;;;;5043901;28;20178;-63
2023/03/07 00:51:29;;;;;;;10.57;7.70;;;-0.10;99.90;;;;;;5044041;28;20174;-63
2023/03/07 00:53:55;;;;;;;11.00;7.63;;;0.00;99.90;;;;;;5044392;28;20175;-63
2023/03/07 00:56:22;;;;;;;11.50;7.20;;;0.00;99.90;;;;;;5037421;28;20179;-63
2023/03/07 00:58:49;;;;;;;16.50;8.50;;;-0.10;99.90;;;;;;5034269;28;20300;-61
2023/03/07 01:01:17;;;;;;;15.83;8.07;;;-0.10;99.90;;;;;;5041798;28;20406;-61
2023/03/07 01:03:43;;;;;;;10.13;7.07;;;-0.10;99.90;;;;;;5038174;28;20409;-63
2023/03/07 01:06:14;;;;;;;12.57;7.67;;;-0.10;99.90;;;;;;5040906;28;20750;-64
2023/03/07 01:08:40;;;;;;;13.50;8.57;;;0.10;99.90;;;;;;5040321;28;20459;-64
2023/03/07 01:11:06;;;;;;;13.20;7.10;;;0.10;99.90;;;;;;5040354;28;20497;-64
2023/03/07 01:13:33;;;;;;;12.73;6.80;;;0.00;99.90;;;;;;5040308;28;20195;-63
2023/03/07 01:16:19;;;;;;;15.17;8.27;;;0.00;99.90;;;;;;5038788;28;20425;-64
2023/03/07 01:18:47;;;;;;;10.70;6.20;;;-0.10;99.90;;;;;;5035837;28;20489;-64
2023/03/07 01:21:16;;;;;;;12.77;8.10;;;-0.20;99.90;;;;;;5042073;28;20821;-63
2023/03/07 01:23:42;;;;;;;13.07;6.77;;;-0.20;99.90;;;;;;5036989;28;20428;-63
2023/03/07 01:26:12;;;;;;;9.60;8.30;;;-0.20;99.90;;;;;;5042719;28;20486;-63
2023/03/07 01:28:37;;;;;;;9.47;6.87;;;-0.20;99.90;;;;;;5038587;28;20283;-64
2023/03/07 01:31:03;;;;;;;12.67;6.70;;;-0.20;99.90;;;;;;5037515;28;20508;-64
2023/03/07 01:33:29;;;;;;;10.23;6.40;;;-0.20;99.90;;;;;;5039771;28;20643;-64
2023/03/07 01:35:54;;;;;;;9.57;6.77;;;-0.20;99.90;;;;;;5039930;28;20174;-65
2023/03/07 01:38:20;;;;;;;8.90;6.63;;;-0.20;99.90;;;;;;5038348;28;20207;-64
2023/03/07 01:40:45;;;;;;;9.80;7.10;;;-0.20;99.90;;;;;;5033165;28;20224;-64
2023/03/07 01:43:28;;;;;;;12.23;8.13;;;0.00;99.90;;;;;;5038867;28;20164;-64
2023/03/07 01:46:25;;;;;;;11.50;7.47;;;-0.10;99.90;;;;;;5041035;28;20183;-64
2023/03/07 01:48:58;;;;;;;15.80;7.40;;;0.00;99.90;;;;;;5037392;28;20798;-65
2023/03/07 01:51:25;;;;;;;14.67;8.13;;;-0.10;99.90;;;;;;5035549;28;20421;-64
2023/03/07 01:53:54;;;;;;;17.13;9.53;;;-0.10;99.90;;;;;;5044885;28;20930;-64
2023/03/07 01:56:21;;;;;;;18.77;9.00;;;0.00;99.90;;;;;;5030519;28;20410;-63
2023/03/07 01:58:47;;;;;;;13.27;9.40;;;0.00;99.90;;;;;;5030563;28;20797;-64
2023/03/07 02:01:16;;;;;;;11.57;8.50;;;0.00;99.90;;;;;;5044800;28;20406;-64
2023/03/07 02:03:58;;;;;;;12.13;7.23;;;0.00;99.90;;;;;;5031539;28;20411;-64
2023/03/07 02:06:26;;;;;;;12.03;7.23;;;-0.10;99.90;;;;;;5040004;28;20397;-66
2023/03/07 02:08:54;;;;;;;14.40;7.97;;;-0.10;99.90;;;;;;5033607;28;20865;-67
2023/03/07 02:11:20;;;;;;;17.50;8.00;;;-0.10;99.90;;;;;;5046336;28;20501;-64
2023/03/07 02:13:46;;;;;;;14.93;8.13;;;-0.10;99.90;;;;;;5038574;28;20421;-64
2023/03/07 02:16:12;;;;;;;21.97;10.37;;;-0.10;99.90;;;;;;5039372;28;20901;-64
2023/03/07 02:18:46;;;;;;;17.23;8.70;;;-0.10;99.90;;;;;;5038255;28;20364;-65
2023/03/07 02:21:33;;;;;;;12.83;7.40;;;-0.10;99.90;;;;;;5031040;28;20414;-64
2023/03/07 02:24:21;;;;;;;14.60;7.37;;;0.00;99.90;;;;;;5038233;28;20410;-64
2023/03/07 02:26:49;;;;;;;13.23;9.43;;;0.00;99.90;;;;;;5033376;28;20471;-64
2023/03/07 02:29:15;;;;;;;17.17;10.60;;;0.10;99.90;;;;;;5031408;28;20885;-65
2023/03/07 02:31:41;;;;;;;19.50;9.23;;;0.10;99.90;;;;;;5033845;28;20422;-64
2023/03/07 02:34:21;;;;;;;16.60;10.97;;;0.10;99.90;;;;;;5038160;28;20176;-65
2023/03/07 02:36:51;;;;;;;17.23;9.00;;;0.20;99.90;;;;;;5034457;28;20441;-65
2023/03/07 02:39:20;;;;;;;17.03;11.00;;;0.30;99.90;;;;;;5041644;28;20457;-63
2023/03/07 02:41:46;;;;;;;20.10;11.47;;;0.30;99.90;;;;;;5039759;28;20414;-65
2023/03/07 02:44:11;;;;;;;19.37;12.17;;;0.30;99.90;;;;;;5031850;28;20847;-65
2023/03/07 02:46:37;;;;;;;15.57;9.93;;;0.40;99.90;;;;;;5028969;28;20508;-65
2023/03/07 02:49:03;;;;;;;25.17;15.63;;;0.40;99.90;;;;;;5041612;28;20183;-64
2023/03/07 02:51:28;;;;;;;21.40;12.23;;;0.40;99.90;;;;;;5032957;28;20171;-64
2023/03/07 02:53:54;;;;;;;27.33;14.50;;;0.50;99.90;;;;;;5034236;28;20187;-64
2023/03/07 02:56:19;;;;;;;21.83;12.53;;;0.50;99.90;;;;;;5042068;28;20551;-64
2023/03/07 02:58:45;;;;;;;25.07;12.60;;;0.60;99.90;;;;;;5041133;28;20221;-64
2023/03/07 03:01:10;;;;;;;25.90;13.80;;;0.60;99.90;;;;;;5039926;28;20262;-65
2023/03/07 03:03:36;;;;;;;21.67;13.13;;;0.60;99.90;;;;;;5038772;28;20175;-65
2023/03/07 03:06:02;;;;;;;22.23;14.43;;;0.60;99.90;;;;;;5032507;28;20263;-64
2023/03/07 03:08:27;;;;;;;21.37;13.03;;;0.70;99.90;;;;;;5041196;28;20649;-65
2023/03/07 03:10:54;;;;;;;25.70;15.50;;;0.70;99.90;;;;;;5040988;28;20183;-65
2023/03/07 03:13:20;;;;;;;23.67;13.27;;;0.80;99.90;;;;;;5032314;28;20187;-65
2023/03/07 03:15:46;;;;;;;29.30;15.90;;;0.80;99.90;;;;;;5035121;28;20954;-65
2023/03/07 03:18:12;;;;;;;21.57;12.17;;;0.80;99.90;;;;;;5032798;28;20819;-64
2023/03/07 03:20:41;;;;;;;23.13;14.17;;;0.80;99.90;;;;;;5040374;28;20504;-65
2023/03/07 03:23:07;;;;;;;23.17;12.80;;;0.80;99.90;;;;;;5040249;28;20198;-65
2023/03/07 03:25:33;;;;;;;28.97;16.10;;;0.80;99.90;;;;;;5032195;28;20484;-64
2023/03/07 03:27:58;;;;;;;25.47;12.97;;;0.80;99.90;;;;;;5037346;28;20195;-65
2023/03/07 03:30:25;;;;;;;22.30;15.47;;;0.80;99.90;;;;;;5039222;28;20179;-64
2023/03/07 03:32:51;;;;;;;20.17;12.80;;;0.80;99.90;;;;;;5034302;28;20199;-64
2023/03/07 03:35:16;;;;;;;29.77;17.70;;;0.70;99.90;;;;;;5044357;28;20418;-65
2023/03/07 03:37:42;;;;;;;26.77;15.20;;;0.80;99.90;;;;;;5031607;28;20226;-64
2023/03/07 03:40:13;;;;;;;29.33;12.97;;;0.80;99.90;;;;;;5046024;28;20177;-65
2023/03/07 03:42:40;;;;;;;24.37;13.33;;;0.80;99.90;;;;;;5031158;28;20605;-64
2023/03/07 03:45:07;;;;;;;23.37;14.20;;;0.80;99.90;;;;;;5034602;28;20413;-64
2023/03/07 03:47:33;;;;;;;24.00;12.30;;;0.80;99.90;;;;;;5042817;28;20458;-64
2023/03/07 03:49:58;;;;;;;27.90;13.97;;;0.90;99.90;;;;;;5037725;28;20909;-65
2023/03/07 03:52:24;;;;;;;21.13;14.70;;;0.80;99.90;;;;;;5044949;28;20176;-65
2023/03/07 03:54:49;;;;;;;29.50;16.33;;;0.90;99.90;;;;;;5037446;28;20187;-64
2023/03/07 03:57:17;;;;;;;26.83;16.47;;;0.90;99.90;;;;;;5037515;28;20277;-65
2023/03/07 03:59:44;;;;;;;24.33;13.70;;;0.90;99.90;;;;;;5037685;28;20207;-65
2023/03/07 04:02:09;;;;;;;28.57;14.43;;;0.90;99.90;;;;;;5023604;28;20794;-64
2023/03/07 04:04:35;;;;;;;15.03;12.23;;;1.00;99.90;;;;;;5041469;28;20446;-64
2023/03/07 04:07:01;;;;;;;22.03;13.23;;;1.00;99.90;;;;;;5038096;28;20228;-65
2023/03/07 04:09:26;;;;;;;29.10;14.47;;;1.00;99.90;;;;;;5045051;28;20610;-64
2023/03/07 04:11:52;;;;;;;25.93;14.60;;;1.00;99.90;;;;;;5037513;28;20701;-64
2023/03/07 04:14:17;;;;;;;26.67;15.00;;;1.10;99.90;;;;;;5037036;28;20175;-64
2023/03/07 04:16:43;;;;;;;27.87;13.90;;;1.10;99.90;;;;;;5031817;28;20199;-65
2023/03/07 04:19:12;;;;;;;23.47;14.37;;;1.10;99.90;;;;;;5030347;28;20226;-65
2023/03/07 04:21:39;;;;;;;24.50;13.23;;;1.10;99.90;;;;;;5041720;28;20194;-65
2023/03/07 04:24:08;;;;;;;30.20;18.10;;;1.20;99.90;;;;;;5040771;28;20956;-65
2023/03/07 04:26:35;;;;;;;27.00;14.97;;;1.30;99.90;;;;;;5043979;28;20408;-64
2023/03/07 04:29:01;;;;;;;23.07;14.00;;;1.30;99.90;;;;;;5036049;28;20476;-64
2023/03/07 04:31:27;;;;;;;19.60;11.70;;;1.30;99.90;;;;;;5043773;28;20413;-64
2023/03/07 04:33:55;;;;;;;24.77;15.70;;;1.40;99.90;;;;;;5044268;28;20420;-65
2023/03/07 04:36:22;;;;;;;25.33;13.63;;;1.40;99.90;;;;;;5039550;28;20469;-64
2023/03/07 04:38:48;;;;;;;21.03;13.23;;;1.40;99.90;;;;;;5044075;28;20974;-65
2023/03/07 04:41:17;;;;;;;22.50;12.70;;;1.50;99.90;;;;;;5042062;28;20869;-65
2023/03/07 04:43:42;;;;;;;22.73;13.67;;;1.50;99.90;;;;;;5035296;28;20433;-64
2023/03/07 04:46:09;;;;;;;23.97;12.93;;;1.50;99.90;;;;;;5033529;28;20415;-64
2023/03/07 04:48:35;;;;;;;23.17;12.20;;;1.50;99.90;;;;;;5039078;28;20649;-63
2023/03/07 04:51:01;;;;;;;23.03;13.40;;;1.50;99.90;;;;;;5040771;28;20520;-63
2023/03/07 04:53:26;;;;;;;22.37;11.10;;;1.50;99.90;;;;;;5037102;28;20266;-63
2023/03/07 04:55:59;;;;;;;26.20;11.67;;;1.50;99.90;;;;;;5041341;28;20225;-62
2023/03/07 04:58:26;;;;;;;20.03;12.77;;;1.50;99.90;;;;;;5042913;28;20207;-63
2023/03/07 05:00:52;;;;;;;26.97;13.03;;;1.50;99.90;;;;;;5036921;28;20779;-65
2023/03/07 05:03:18;;;;;;;24.10;12.37;;;1.40;99.90;;;;;;5034528;28;20421;-63
2023/03/07 05:05:43;;;;;;;26.13;12.90;;;1.30;99.90;;;;;;5043338;28;20175;-63
2023/03/07 05:08:09;;;;;;;20.37;11.00;;;1.30;99.90;;;;;;5041528;28;20210;-64
2023/03/07 05:10:35;;;;;;;18.67;12.37;;;1.30;99.90;;;;;;5041026;28;20490;-64
2023/03/07 05:13:02;;;;;;;22.87;10.40;;;1.20;99.90;;;;;;5035381;28;20225;-65
2023/03/07 05:15:28;;;;;;;13.60;10.10;;;1.30;99.90;;;;;;5040494;28;20419;-64
2023/03/07 05:17:54;;;;;;;19.97;13.17;;;1.20;99.90;;;;;;5041395;28;20580;-64
2023/03/07 05:20:19;;;;;;;23.90;13.57;;;1.20;99.90;;;;;;5040291;28;20520;-63
2023/03/07 05:22:45;;;;;;;16.10;10.30;;;1.20;99.90;;;;;;5041282;28;20175;-63
2023/03/07 05:25:11;;;;;;;17.47;11.73;;;1.20;99.90;;;;;;5041698;28;20433;-63
2023/03/07 05:27:37;;;;;;;16.90;13.17;;;1.10;99.90;;;;;;5039220;28;20434;-63
2023/03/07 05:30:04;;;;;;;18.90;11.17;;;1.20;99.90;;;;;;5037575;28;20446;-64
2023/03/07 05:32:30;;;;;;;18.37;10.80;;;1.20;99.90;;;;;;5040350;28;20419;-63
2023/03/07 05:34:56;;;;;;;17.17;10.80;;;1.20;99.90;;;;;;5041339;28;20527;-64
2023/03/07 05:37:21;;;;;;;18.13;10.60;;;1.20;99.90;;;;;;5033882;28;20441;-64
2023/03/07 05:39:47;;;;;;;23.10;12.80;;;1.20;99.90;;;;;;5037095;28;20656;-63
2023/03/07 05:42:14;;;;;;;20.73;13.10;;;1.30;99.90;;;;;;5040967;28;20606;-63
2023/03/07 05:44:40;;;;;;;19.00;12.00;;;1.20;99.90;;;;;;5039013;28;20238;-64
2023/03/07 05:47:05;;;;;;;24.07;12.90;;;1.30;99.90;;;;;;5045250;28;21158;-64
2023/03/07 05:49:31;;;;;;;17.50;11.50;;;1.20;99.90;;;;;;5032112;28;20428;-63
2023/03/07 05:51:57;;;;;;;20.93;11.97;;;1.30;99.90;;;;;;5038328;28;20606;-63
2023/03/07 05:54:22;;;;;;;17.00;11.23;;;1.20;99.90;;;;;;5043877;28;20201;-64
2023/03/07 05:56:48;;;;;;;19.80;12.80;;;1.20;99.90;;;;;;5045070;28;20290;-63
2023/03/07 05:59:14;;;;;;;19.60;12.77;;;1.20;99.90;;;;;;5040825;28;20597;-63
2023/03/07 06:01:40;;;;;;;17.53;11.67;;;1.20;99.90;;;;;;5031581;28;20213;-64
2023/03/07 06:04:06;;;;;;;22.67;13.20;;;1.20;99.90;;;;;;5031618;28;20418;-64
2023/03/07 06:06:32;;;;;;;25.37;13.87;;;1.20;99.90;;;;;;5033329;28;20856;-64
2023/03/07 06:08:57;;;;;;;18.80;13.53;;;1.30;99.90;;;;;;5041476;28;20186;-65
2023/03/07 06:11:23;;;;;;;17.17;11.60;;;1.30;99.90;;;;;;5038970;28;20224;-64
2023/03/07 06:13:49;;;;;;;16.90;11.33;;;1.30;99.90;;;;;;5037037;28;20232;-65
2023/03/07 06:16:14;;;;;;;20.70;10.93;;;1.40;99.90;;;;;;5033620;28;20176;-64
2023/03/07 06:18:40;;;;;;;18.20;12.10;;;1.40;99.90;;;;;;5039875;28;20338;-61
2023/03/07 06:21:07;;;;;;;19.73;12.57;;;1.50;99.90;;;;;;5045290;28;20194;-65
2023/03/07 06:23:35;;;;;;;25.53;14.80;;;1.50;99.90;;;;;;5040203;28;20642;-64
2023/03/07 06:26:01;;;;;;;18.87;12.50;;;1.50;99.90;;;;;;5033593;28;20414;-62
2023/03/07 06:28:27;;;;;;;22.03;13.57;;;1.50;99.90;;;;;;5041660;28;20436;-65
2023/03/07 06:30:53;;;;;;;25.13;12.73;;;1.50;99.90;;;;;;5041156;28;20803;-63
2023/03/07 06:33:19;;;;;;;27.03;12.30;;;1.50;99.90;;;;;;5040636;28;20180;-64
2023/03/07 06:35:45;;;;;;;22.67;12.23;;;1.50;99.90;;;;;;5038725;28;20265;-64
2023/03/07 06:38:14;;;;;;;19.47;12.67;;;1.50;99.90;;;;;;5037049;28;20557;-62
2023/03/07 06:40:39;;;;;;;25.70;13.03;;;1.60;99.90;;;;;;5044669;28;20680;-65
2023/03/07 06:43:05;;;;;;;23.60;13.40;;;1.60;99.90;;;;;;5032683;28;20964;-62
2023/03/07 06:45:31;;;;;;;22.47;14.10;;;1.60;99.90;;;;;;5041643;28;20224;-63
2023/03/07 06:47:57;;;;;;;20.37;12.07;;;1.70;99.90;;;;;;5040202;28;21022;-62
2023/03/07 06:50:23;;;;;;;25.43;11.67;;;1.70;99.90;;;;;;5038156;28;20310;-63
2023/03/07 06:52:50;;;;;;;21.73;12.60;;;1.80;99.90;;;;;;5034602;28;20183;-63
2023/03/07 06:55:16;;;;;;;23.73;13.07;;;1.80;99.90;;;;;;5039607;28;20429;-64
2023/03/07 06:57:42;;;;;;;19.37;11.10;;;1.80;99.90;;;;;;5044210;28;20508;-63
2023/03/07 07:00:08;;;;;;;24.30;13.23;;;1.80;99.90;;;;;;5038604;28;20461;-63
2023/03/07 07:02:34;;;;;;;19.67;13.10;;;1.90;99.90;;;;;;5041713;28;20186;-64
2023/03/07 07:05:01;;;;;;;26.90;12.37;;;1.90;99.90;;;;;;5035900;28;20406;-62
2023/03/07 07:07:27;;;;;;;18.53;12.20;;;1.90;99.90;;;;;;5038050;28;20199;-64
2023/03/07 07:09:52;;;;;;;28.93;13.40;;;2.00;99.90;;;;;;5042346;28;20798;-64
2023/03/07 07:12:18;;;;;;;19.30;12.87;;;1.90;99.90;;;;;;5040660;28;20410;-63
2023/03/07 07:14:44;;;;;;;26.27;12.97;;;2.00;99.90;;;;;;5041537;28;20258;-63
2023/03/07 07:17:09;;;;;;;21.63;13.37;;;2.00;99.90;;;;;;5038154;28;20191;-63
2023/03/07 07:19:35;;;;;;;25.80;12.13;;;2.10;99.90;;;;;;5030071;28;20256;-64
2023/03/07 07:22:00;;;;;;;15.17;11.50;;;2.10;99.90;;;;;;5028059;28;20195;-63
2023/03/07 07:24:26;;;;;;;26.73;13.73;;;2.10;99.90;;;;;;5041261;28;20221;-65
2023/03/07 07:26:52;;;;;;;26.30;13.63;;;2.10;99.90;;;;;;5041378;28;20224;-63
2023/03/07 07:29:18;;;;;;;21.90;13.43;;;2.20;99.90;;;;;;5039496;28;20959;-62
2023/03/07 07:31:43;;;;;;;19.73;11.90;;;2.30;99.90;;;;;;5030774;28;20502;-65
2023/03/07 07:34:09;;;;;;;18.40;12.03;;;2.40;99.90;;;;;;5037756;28;20236;-64
2023/03/07 07:36:35;;;;;;;23.17;13.33;;;2.50;99.90;;;;;;5039893;28;20183;-63
2023/03/07 07:39:04;;;;;;;17.27;9.77;;;2.50;99.90;;;;;;5040302;28;20207;-64
2023/03/07 07:41:31;;;;;;;18.83;11.30;;;2.60;99.90;;;;;;5033932;28;20178;-62
2023/03/07 07:43:57;;;;;;;21.60;11.40;;;2.60;99.90;;;;;;5034005;28;20406;-62
2023/03/07 07:46:22;;;;;;;20.93;13.80;;;2.70;99.90;;;;;;5039888;28;20421;-63
2023/03/07 07:48:48;;;;;;;17.70;10.50;;;2.80;99.90;;;;;;5036712;28;20180;-63
2023/03/07 07:51:14;;;;;;;19.03;11.20;;;2.90;99.90;;;;;;5039362;28;20690;-63
2023/03/07 07:53:39;;;;;;;19.43;12.13;;;2.80;99.90;;;;;;5040114;28;20789;-64
2023/03/07 07:56:05;;;;;;;18.27;12.00;;;2.80;99.90;;;;;;5041174;28;20182;-62
2023/03/07 07:58:31;;;;;;;16.63;9.93;;;2.80;99.90;;;;;;5047502;28;20337;-62
2023/03/07 08:00:57;;;;;;;19.27;10.70;;;2.90;99.90;;;;;;5034421;28;20206;-63
2023/03/07 08:03:22;;;;;;;18.10;11.90;;;2.80;99.90;;;;;;5043933;28;20183;-64
2023/03/07 08:05:48;;;;;;;22.93;12.10;;;2.80;99.90;;;;;;5036352;28;20411;-63
2023/03/07 08:08:15;;;;;;;15.50;11.23;;;2.80;99.90;;;;;;5044134;28;20681;-63
2023/03/07 08:10:42;;;;;;;19.37;11.03;;;2.90;99.90;;;;;;5044131;28;20290;-64
2023/03/07 08:13:11;;;;;;;13.43;9.30;;;2.90;99.90;;;;;;5044963;28;20428;-64
2023/03/07 08:15:36;;;;;;;12.67;9.33;;;3.00;99.90;;;;;;5043496;28;20488;-64
2023/03/07 08:18:02;;;;;;;15.77;9.17;;;3.00;99.90;;;;;;5037938;28;20858;-64
2023/03/07 08:20:28;;;;;;;11.70;8.27;;;3.00;99.90;;;;;;5043398;28;20178;-64
2023/03/07 08:22:53;;;;;;;15.00;10.20;;;3.00;99.90;;;;;;5045434;28;20255;-64
2023/03/07 08:25:22;;;;;;;13.90;8.93;;;3.00;99.90;;;;;;5037139;28;20250;-64
2023/03/07 08:27:53;;;;;;;16.63;10.93;;;3.00;99.90;;;;;;5034274;28;20207;-64
2023/03/07 08:30:23;;;;;;;15.13;9.03;;;3.00;99.90;;;;;;5042422;28;20434;-64
2023/03/07 08:32:50;;;;;;;22.03;10.90;;;2.90;99.90;;;;;;5031308;28;20791;-64
2023/03/07 08:35:16;;;;;;;15.73;10.13;;;2.90;99.90;;;;;;5047223;28;20471;-64
2023/03/07 08:37:42;;;;;;;10.07;7.33;;;2.80;99.90;;;;;;5032531;28;20447;-63
2023/03/07 08:40:08;;;;;;;15.53;10.63;;;2.90;99.90;;;;;;5039762;28;20825;-64
2023/03/07 08:42:33;;;;;;;14.80;9.20;;;2.90;99.90;;;;;;5046266;28;20178;-64
2023/03/07 08:44:59;;;;;;;22.20;8.60;;;2.90;99.90;;;;;;5033812;28;20422;-65
2023/03/07 08:47:25;;;;;;;15.43;9.00;;;3.10;99.90;;;;;;5035914;28;20218;-63
2023/03/07 08:49:51;;;;;;;15.80;9.60;;;3.10;99.90;;;;;;5042005;28;20175;-63
2023/03/07 08:52:16;;;;;;;18.83;9.67;;;3.20;99.90;;;;;;5048421;28;20190;-63
2023/03/07 08:54:42;;;;;;;17.10;8.23;;;3.30;99.90;;;;;;5041171;28;20426;-64
2023/03/07 08:57:08;;;;;;;15.37;9.07;;;3.30;99.90;;;;;;5015711;28;20625;-64
2023/03/07 08:59:33;;;;;;;15.33;8.37;;;3.40;99.90;;;;;;5040719;28;20199;-63
2023/03/07 09:01:59;;;;;;;19.20;10.20;;;3.50;99.90;;;;;;5033689;28;20598;-64
2023/03/07 09:04:24;;;;;;;14.70;9.00;;;3.60;99.90;;;;;;5047582;28;20172;-65
2023/03/07 09:06:50;;;;;;;10.10;6.60;;;3.60;99.90;;;;;;5035885;28;20199;-65
2023/03/07 09:09:15;;;;;;;12.97;8.57;;;3.70;99.90;;;;;;5048349;28;20270;-65
2023/03/07 09:11:41;;;;;;;13.73;8.40;;;3.90;99.90;;;;;;5040557;28;20183;-65
2023/03/07 09:14:07;;;;;;;11.93;7.17;;;4.00;99.90;;;;;;5033272;28;20242;-64
2023/03/07 09:16:32;;;;;;;14.50;8.87;;;4.10;99.90;;;;;;5045651;28;20181;-63
2023/03/07 09:18:58;;;;;;;14.17;8.77;;;4.20;99.90;;;;;;5040134;28;20200;-61
2023/03/07 09:21:23;;;;;;;13.30;7.10;;;4.10;99.90;;;;;;5047282;28;20275;-64
2023/03/07 09:23:49;;;;;;;11.27;7.47;;;4.10;99.90;;;;;;5040613;28;20262;-65
2023/03/07 09:26:15;;;;;;;11.43;8.07;;;4.00;99.90;;;;;;5042123;28;20168;-65
2023/03/07 09:28:40;;;;;;;11.63;7.77;;;4.20;99.90;;;;;;5041151;28;20192;-65
2023/03/07 09:31:12;;;;;;;10.30;7.40;;;4.20;99.90;;;;;;5038282;28;20174;-64
2023/03/07 09:33:38;;;;;;;12.27;6.87;;;4.30;99.90;;;;;;5043544;28;20630;-66
2023/03/07 09:36:05;;;;;;;8.87;6.60;;;4.20;99.90;;;;;;5039566;28;20779;-65
2023/03/07 09:38:31;;;;;;;10.67;7.13;;;4.10;99.90;;;;;;5039359;28;20458;-65
2023/03/07 09:41:26;;;;;;;11.10;7.20;;;4.20;99.90;;;;;;5039678;28;20905;-66
2023/03/07 09:44:16;;;;;;;10.10;8.27;;;4.20;99.90;;;;;;5036417;28;20520;-63
2023/03/07 09:47:19;;;;;;;9.50;6.47;;;4.30;99.90;;;;;;5031673;28;20442;-63
2023/03/07 09:49:49;;;;;;;12.37;6.60;;;4.40;99.90;;;;;;5038343;28;20453;-65
2023/03/07 09:52:25;;;;;;;10.83;6.67;;;4.60;99.90;;;;;;5039535;28;20510;-65
2023/03/07 09:55:00;;;;;;;11.20;6.60;;;4.70;99.90;;;;;;5033897;28;20840;-65
2023/03/07 09:57:30;;;;;;;13.57;7.80;;;4.90;99.90;;;;;;5042690;28;20436;-65
2023/03/07 10:00:20;;;;;;;11.13;6.77;;;5.00;99.90;;;;;;5041466;28;20458;-65
2023/03/07 10:02:53;;;;;;;12.33;7.37;;;4.90;99.90;;;;;;5040127;28;20409;-65
2023/03/07 10:05:21;;;;;;;9.10;6.10;;;5.00;99.90;;;;;;5038529;28;20843;-65
2023/03/07 10:07:47;;;;;;;12.63;5.73;;;5.10;99.90;;;;;;5038931;28;20421;-64
2023/03/07 10:10:25;;;;;;;7.77;5.27;;;5.20;99.90;;;;;;5041985;28;20410;-65
2023/03/07 10:13:06;;;;;;;9.27;5.47;;;5.30;99.90;;;;;;5042838;28;20510;-65
2023/03/07 10:15:47;;;;;;;7.73;4.63;;;5.30;99.90;;;;;;5029347;28;20410;-65
2023/03/07 10:18:33;;;;;;;6.97;4.70;;;5.20;99.90;;;;;;5036558;28;20947;-64
2023/03/07 10:21:40;;;;;;;7.40;5.70;;;5.30;99.90;;;;;;5045554;28;20745;-64
2023/03/07 10:24:49;;;;;;;7.27;4.30;;;5.30;99.90;;;;;;5036941;28;20433;-64
2023/03/07 10:27:16;;;;;;;7.93;4.47;;;5.30;99.90;;;;;;4934303;29;20751;-64
2023/03/07 10:29:55;;;;;;;6.67;3.83;;;5.40;99.90;;;;;;5020696;28;20758;-64
2023/03/07 10:32:45;;;;;;;4.17;3.77;;;5.30;99.90;;;;;;5036447;28;20413;-64
2023/03/07 10:35:12;;;;;;;5.03;3.80;;;5.40;99.90;;;;;;5036132;28;20410;-65
2023/03/07 10:37:50;;;;;;;5.83;4.00;;;5.30;99.90;;;;;;5030722;28;20428;-65
2023/03/07 10:40:30;;;;;;;6.10;4.73;;;5.20;99.90;;;;;;5046986;28;20594;-66
2023/03/07 10:42:57;;;;;;;6.30;3.80;;;5.10;99.90;;;;;;5038783;28;20500;-65
2023/03/07 10:45:23;;;;;;;3.87;3.27;;;5.30;99.90;;;;;;5045747;28;20415;-66
2023/03/07 10:47:48;;;;;;;2.70;2.23;;;5.00;99.90;;;;;;5043373;28;20483;-65
2023/03/07 10:50:36;;;;;;;2.07;1.90;;;4.90;99.90;;;;;;5040380;28;20175;-65
2023/03/07 10:53:03;;;;;;;2.40;2.03;;;4.90;99.90;;;;;;5016640;28;20187;-65
2023/03/07 10:55:39;;;;;;;2.73;2.00;;;4.90;99.90;;;;;;5029337;28;20623;-65
2023/03/07 10:58:12;;;;;;;5.00;1.90;;;4.80;99.90;;;;;;5043466;28;20496;-65
2023/03/07 11:00:37;;;;;;;2.00;1.63;;;4.70;99.90;;;;;;5033498;28;20506;-66
2023/03/07 11:03:03;;;;;;;2.90;1.83;;;5.00;99.90;;;;;;5031094;28;20448;-66
2023/03/07 11:05:35;;;;;;;4.17;2.30;;;4.80;99.90;;;;;;5040467;28;20179;-65
2023/03/07 11:08:25;;;;;;;2.47;2.27;;;4.80;99.90;;;;;;5034932;28;20936;-66
2023/03/07 11:10:50;;;;;;;4.83;2.70;;;4.90;99.90;;;;;;5034656;28;20407;-66
2023/03/07 11:13:18;;;;;;;2.50;2.30;;;4.70;99.90;;;;;;5038771;28;20402;-66
2023/03/07 11:15:44;;;;;;;4.07;2.57;;;4.90;99.90;;;;;;5038141;28;20209;-66
2023/03/07 11:18:40;;;;;;;4.13;2.33;;;4.90;99.90;;;;;;5034334;28;20445;-65
2023/03/07 11:21:05;;;;;;;2.07;1.87;;;4.90;99.90;;;;;;5033788;28;20425;-65
2023/03/07 11:23:31;;;;;;;2.93;2.60;;;4.90;99.90;;;;;;5046444;28;20410;-65
2023/03/07 11:26:21;;;;;;;2.43;2.10;;;5.00;99.90;;;;;;5036446;28;20689;-65
2023/03/07 11:28:46;;;;;;;2.77;2.50;;;5.00;99.90;;;;;;5031395;28;20181;-64
2023/03/07 11:31:26;;;;;;;3.53;2.53;;;4.90;99.90;;;;;;5039878;28;20414;-64
2023/03/07 11:34:05;;;;;;;3.43;2.30;;;4.80;99.90;;;;;;5041849;28;20174;-64
2023/03/07 11:36:35;;;;;;;2.30;2.00;;;4.80;99.90;;;;;;5036519;28;20791;-64
2023/03/07 11:39:22;;;;;;;4.90;2.00;;;4.80;99.90;;;;;;5041707;28;20457;-64
2023/03/07 11:41:55;;;;;;;3.00;1.70;;;4.80;99.90;;;;;;5036520;28;20409;-65
2023/03/07 11:44:53;;;;;;;2.53;1.50;;;4.70;99.90;;;;;;5039312;28;20409;-67
2023/03/07 11:47:33;;;;;;;4.20;1.67;;;4.80;99.90;;;;;;5044420;28;20790;-67
2023/03/07 11:50:25;;;;;;;2.77;1.87;;;4.90;99.90;;;;;;5038345;28;20520;-65
2023/03/07 11:52:53;;;;;;;1.80;1.60;;;4.80;99.90;;;;;;5032487;28;20936;-65
2023/03/07 11:55:31;;;;;;;1.97;1.73;;;4.80;99.90;;;;;;5036792;28;20468;-65
2023/03/07 11:58:18;;;;;;;3.57;1.93;;;4.90;99.90;;;;;;5037939;28;20944;-64
2023/03/07 12:00:58;;;;;;;3.43;1.90;;;4.70;99.90;;;;;;5032727;28;20412;-64
2023/03/07 12:03:52;;;;;;;1.93;1.50;;;4.60;99.90;;;;;;5031102;28;20489;-64
2023/03/07 12:06:59;;;;;;;1.80;1.70;;;4.50;99.90;;;;;;5041739;28;20427;-65
2023/03/07 12:09:28;;;;;;;4.57;2.40;;;4.40;99.90;;;;;;5044911;28;20513;-65
2023/03/07 12:12:03;;;;;;;3.60;1.87;;;4.40;99.90;;;;;;5032176;28;20467;-65
2023/03/07 12:14:57;;;;;;;2.27;2.03;;;4.40;99.90;;;;;;5021731;28;20648;-63
2023/03/07 12:17:23;;;;;;;1.63;1.53;;;4.40;99.90;;;;;;5037370;28;20780;-65
2023/03/07 12:20:09;;;;;;;1.93;1.73;;;4.30;99.90;;;;;;5055201;22;20512;-70
2023/03/07 12:22:53;;;;;;;2.23;2.03;;;4.40;99.90;;;;;;5029015;28;20204;-70
2023/03/07 12:25:31;;;;;;;2.10;1.47;;;4.50;99.90;;;;;;5042896;28;20897;-70
2023/03/07 12:28:12;;;;;;;2.90;1.80;;;4.40;99.90;;;;;;5039070;28;20850;-70
2023/03/07 12:30:40;;;;;;;2.30;1.20;;;4.20;99.90;;;;;;5031165;28;20445;-69
2023/03/07 12:33:17;;;;;;;1.73;1.17;;;4.10;99.90;;;;;;5043783;28;20401;-69
2023/03/07 12:35:48;;;;;;;1.40;1.30;;;4.30;99.90;;;;;;5041792;28;20445;-69
2023/03/07 12:38:23;;;;;;;1.17;1.00;;;4.40;99.90;;;;;;5040885;28;20968;-70
2023/03/07 12:41:00;;;;;;;1.40;1.30;;;4.20;99.90;;;;;;5032213;28;20430;-68
2023/03/07 12:43:34;;;;;;;1.50;1.40;;;4.00;99.90;;;;;;5049651;28;20927;-69
2023/03/07 12:46:04;;;;;;;4.30;1.30;;;3.80;99.90;;;;;;5038902;28;20464;-70
2023/03/07 12:48:45;;;;;;;1.57;1.20;;;3.70;99.90;;;;;;5035517;28;20415;-69
2023/03/07 12:51:20;;;;;;;2.30;1.43;;;3.60;99.90;;;;;;5040177;28;20515;-69
2023/03/07 12:53:53;;;;;;;2.60;1.30;;;3.60;99.90;;;;;;5042165;28;20406;-70